Hong Kong International Airport

VHHH · 離島區, Hong Kong

罗盘
风向 的 香港國際機場 7L/25R
风: 4 kt, 1 beaufort

1 kt

3 kt
改变
0 ft 1.000 2.000 3.000 4.000 5.000
CAVOK
METAR ZGOW 030700Z VRB02MPS CAVOK 21/11 Q1016 NOSIG

METAR 香港國際機場 - VHHH/HKG

香港國際機場是,Hong Kong中的大型机场。 该机场有3条跑道: 7L/25R, 7R/25L 和 7C/25C. 该领域的国际民航组织标志是VHHH 它的国际航空运输协会代码是HKG.

这份报告是针对2023年2月3日 15:00, 当地时间在汕头外砂机场进行的。

机场观察

可变方向的风很小或没有风。

天气为CAVOK。这意味着在5.000 ft或MSA(最低安全高度)以下(以较高者为准)以下没有云。这也意味着没有观测到积雨云或高耸的积云,可见度为10 km 或者更多或更高。此外,不会有雾,降雨或其他重要天气。

温度和风寒是21 °C。 露点为11 °C,相对湿度为53%。 海平面上的气压为1016 hPa (QNH)。

白天

今天,太阳从07:02升起,在18:13降落。 这适用于香港國際機場,世界夏令时可能有所不同。 当地时间与世界标准时间之间的时差为+8 小时。 当前,没有夏令时有效。

公司介绍

我们没有关于这个机场的公司信息。

体会

到Vliegles.nl去找飞行课程,跳伞和其他飞行体验。 浏览页面,了解香港國際機場附近所有可用的活动。 你也可以使用搜索功能来寻找你所在地附近的特定飞行课程、跳伞或其他飞行体验。

跑道

Id 标题 侧风 逆风 侧风 %
7L/25R 074°-254° 3 kt 96 %
7R/25L 074°-254° 3 kt 96 %
7C/25C 074°-254° 3 kt 96 %

逆风成分最大的方向会被突出显示,并用于横风计算。 这并不一定意味着这个方向在使用。

温度 & 天气

温度 21 °C
露点 11 °C
相对湿度 53%
Kp-index 0 (0-9)

白天

日出
06:53
中午
12:27
日落
18:01 (2:33)

小工具

你想在你的网站上有一个关于香港國際機場的当前航空天气(METAR)的小部件吗?

显示HTML代码

我们和第三方通过cookies跟踪您在我们网站上的互联网行为。如果你继续,我们认为你同意我们的饼干政策